Time;durP1;ratioP1;P1;durP2;ratioP2;P2;SDS_P1;SDS_P2;PMS_P1;PMS_P2;Temp;Humidity;BMP_temperature;BMP_pressure;BME280_temperature;BME280_humidity;BME280_pressure;Samples;Min_cycle;Max_cycle;Signal;HPM_P1;HPM_P2
2024/04/09 00:02:15;;;;;;;0.10;0.10;;;;;;;13.73;61.06;101567.53;5249572;27;20073;-84
2024/04/09 00:04:40;;;;;;;0.10;0.10;;;;;;;13.61;61.66;101562.06;5221736;27;20072;-85
2024/04/09 00:07:06;;;;;;;0.20;0.20;;;;;;;13.65;61.65;101563.59;5221777;27;20005;-85
2024/04/09 00:09:32;;;;;;;0.10;0.10;;;;;;;13.62;61.54;101558.56;5249059;27;20010;-85
2024/04/09 00:11:58;;;;;;;0.10;0.10;;;;;;;13.63;61.60;101566.28;5249400;27;20038;-84
2024/04/09 00:14:24;;;;;;;0.10;0.10;;;;;;;13.69;61.54;101573.81;5249076;27;20079;-84
2024/04/09 00:16:53;;;;;;;0.20;0.20;;;;;;;13.65;61.52;101574.00;5249200;27;19998;-85
2024/04/09 00:19:24;;;;;;;0.10;0.10;;;;;;;13.58;61.08;101572.63;5250384;27;20068;-85
2024/04/09 00:21:52;;;;;;;0.10;0.10;;;;;;;13.47;61.20;101566.16;5250553;27;20006;-84
2024/04/09 00:24:18;;;;;;;0.20;0.20;;;;;;;13.44;61.58;101565.44;5221593;27;19998;-84
2024/04/09 00:26:44;;;;;;;0.10;0.10;;;;;;;13.25;62.13;101568.03;5221572;27;20073;-85
2024/04/09 00:29:10;;;;;;;0.20;0.20;;;;;;;13.03;62.77;101549.94;5249451;27;20002;-85
2024/04/09 00:31:36;;;;;;;0.10;0.10;;;;;;;13.05;63.64;101562.84;5221774;27;20313;-85
2024/04/09 00:34:03;;;;;;;0.10;0.10;;;;;;;13.03;63.29;101559.47;5276776;27;20010;-85
2024/04/09 00:36:29;;;;;;;0.20;0.20;;;;;;;13.09;63.04;101564.41;5249017;27;20009;-84
2024/04/09 00:38:56;;;;;;;0.10;0.10;;;;;;;13.01;62.72;101556.13;5249506;27;20326;-84
2024/04/09 00:41:22;;;;;;;0.10;0.10;;;;;;;13.01;62.71;101566.50;5277536;27;20013;-84
2024/04/09 00:43:47;;;;;;;0.10;0.10;;;;;;;12.99;62.35;101556.19;5249538;27;20002;-84
2024/04/09 00:46:14;;;;;;;0.10;0.10;;;;;;;12.85;62.55;101536.00;5277306;27;19998;-85
2024/04/09 00:48:39;;;;;;;0.10;0.10;;;;;;;12.97;62.71;101565.78;5277380;27;20009;-84
2024/04/09 00:51:05;;;;;;;0.20;0.20;;;;;;;12.92;62.94;101562.56;5276378;27;19998;-85
2024/04/09 00:53:32;;;;;;;0.10;0.10;;;;;;;12.77;63.08;101565.81;5248967;27;20012;-84
2024/04/09 00:55:58;;;;;;;0.20;0.20;;;;;;;12.83;62.71;101568.16;5249349;27;20330;-85
2024/04/09 00:58:24;;;;;;;0.10;0.10;;;;;;;12.66;63.08;101576.66;5221594;27;19998;-84
2024/04/09 01:00:49;;;;;;;0.10;0.10;;;;;;;12.45;63.27;101561.97;5277148;27;20428;-84
2024/04/09 01:03:15;;;;;;;0.10;0.10;;;;;;;12.49;63.73;101574.78;5277199;27;20010;-85
2024/04/09 01:05:40;;;;;;;0.20;0.20;;;;;;;12.44;64.00;101570.69;5276954;27;20009;-85
2024/04/09 01:08:06;;;;;;;0.10;0.10;;;;;;;12.37;63.98;101564.03;5249069;27;20440;-84
2024/04/09 01:10:31;;;;;;;0.20;0.20;;;;;;;12.32;64.23;101567.69;5249149;27;20437;-84
2024/04/09 01:13:00;;;;;;;0.10;0.10;;;;;;;12.39;63.84;101562.22;5276915;27;20009;-85
2024/04/09 01:15:25;;;;;;;0.10;0.10;;;;;;;12.41;63.82;101547.47;5248726;27;19998;-85
2024/04/09 01:17:51;;;;;;;0.10;0.10;;;;;;;12.43;63.66;101553.44;5277174;27;20009;-85
2024/04/09 01:20:16;;;;;;;0.20;0.20;;;;;;;12.37;63.27;101538.09;5248521;27;20002;-84
2024/04/09 01:22:43;;;;;;;0.10;0.10;;;;;;;12.41;63.14;101550.06;5276954;27;20002;-84
2024/04/09 01:25:10;;;;;;;0.20;0.20;;;;;;;12.27;64.47;101542.81;5277102;27;20010;-85
2024/04/09 01:27:38;;;;;;;0.20;0.20;;;;;;;12.29;64.62;101557.44;5249203;27;20009;-84
2024/04/09 01:30:12;;;;;;;0.10;0.10;;;;;;;12.21;64.50;101575.06;5248725;27;20002;-84
2024/04/09 01:32:39;;;;;;;0.20;0.20;;;;;;;12.17;64.58;101573.50;5249148;27;20013;-84
2024/04/09 01:35:06;;;;;;;0.10;0.10;;;;;;;12.03;64.60;101581.00;5275826;27;20014;-85
2024/04/09 01:37:33;;;;;;;0.20;0.20;;;;;;;12.09;62.91;101585.06;5276805;27;20003;-85
2024/04/09 01:39:58;;;;;;;0.10;0.10;;;;;;;11.90;62.61;101559.91;5248503;27;20072;-85
2024/04/09 01:42:24;;;;;;;0.10;0.10;;;;;;;11.91;62.85;101578.88;5276509;27;20609;-84
2024/04/09 01:44:49;;;;;;;0.20;0.20;;;;;;;11.66;63.67;101566.84;5278008;27;19998;-84
2024/04/09 01:47:15;;;;;;;0.20;0.20;;;;;;;11.61;63.97;101567.94;5248254;27;20013;-84
2024/04/09 01:49:40;;;;;;;0.10;0.10;;;;;;;11.61;63.97;101578.28;5277533;27;20328;-84
2024/04/09 01:52:08;;;;;;;0.10;0.10;;;;;;;11.38;64.27;101563.59;5248197;27;20013;-84
2024/04/09 01:54:34;;;;;;;0.20;0.20;;;;;;;11.38;64.98;101566.19;5248293;27;20002;-84
2024/04/09 01:57:00;;;;;;;0.10;0.10;;;;;;;11.42;64.85;101573.81;5276276;27;20012;-84
2024/04/09 01:59:26;;;;;;;0.20;0.20;;;;;;;11.42;65.04;101554.81;5220608;27;20013;-84
2024/04/09 02:01:52;;;;;;;0.20;0.20;;;;;;;11.57;64.62;101574.97;5275040;27;20039;-84
2024/04/09 02:04:18;;;;;;;0.10;0.10;;;;;;;11.49;64.66;101557.09;5247955;27;20002;-85
2024/04/09 02:06:44;;;;;;;0.20;0.20;;;;;;;11.50;64.97;101568.31;5247969;27;20010;-85
2024/04/09 02:09:11;;;;;;;0.10;0.10;;;;;;;11.41;65.03;101555.72;5247952;27;20013;-84
2024/04/09 02:11:37;;;;;;;0.10;0.10;;;;;;;11.36;64.84;101553.28;5247770;27;20014;-84
2024/04/09 02:14:04;;;;;;;0.20;0.20;;;;;;;11.44;65.52;101565.97;5247438;27;20017;-84
2024/04/09 02:16:30;;;;;;;0.10;0.10;;;;;;;11.53;65.01;101565.63;5276049;27;20010;-84
2024/04/09 02:18:55;;;;;;;0.10;0.10;;;;;;;11.49;65.62;101569.22;5247486;27;20002;-84
2024/04/09 02:21:22;;;;;;;0.10;0.10;;;;;;;11.49;65.42;101566.63;5220199;27;20002;-84
2024/04/09 02:23:51;;;;;;;0.20;0.20;;;;;;;11.47;65.05;101550.28;5275941;27;20013;-84
2024/04/09 02:26:19;;;;;;;0.10;0.10;;;;;;;11.46;64.98;101548.59;5248066;27;20013;-85
2024/04/09 02:28:45;;;;;;;0.20;0.20;;;;;;;11.41;65.46;101571.28;5275874;27;19998;-84
2024/04/09 02:31:10;;;;;;;0.10;0.10;;;;;;;11.38;65.27;101551.47;5275685;27;20009;-84
2024/04/09 02:33:36;;;;;;;0.10;0.10;;;;;;;11.40;65.05;101557.44;5275031;27;20002;-84
2024/04/09 02:36:03;;;;;;;0.10;0.10;;;;;;;11.38;65.38;101566.19;5247471;27;20017;-84
2024/04/09 02:38:31;;;;;;;0.20;0.20;;;;;;;11.30;65.64;101563.03;5275988;27;20042;-84
2024/04/09 02:41:00;;;;;;;0.10;0.10;;;;;;;11.23;65.88;101569.34;5221907;27;20009;-84
2024/04/09 02:43:26;;;;;;;0.10;0.10;;;;;;;11.13;65.67;101555.91;5275527;27;20002;-84
2024/04/09 02:45:51;;;;;;;0.20;0.20;;;;;;;11.10;65.82;101567.19;5247349;27;20396;-85
2024/04/09 02:48:17;;;;;;;0.20;0.20;;;;;;;11.15;65.24;101565.28;5219269;27;20332;-84
2024/04/09 02:50:43;;;;;;;0.10;0.10;;;;;;;11.00;65.37;101555.47;5247172;27;20424;-85
2024/04/09 02:53:09;;;;;;;0.10;0.10;;;;;;;11.00;65.59;101571.00;5275371;27;20014;-85
2024/04/09 02:55:36;;;;;;;0.20;0.20;;;;;;;10.91;65.10;101548.91;5219290;27;20441;-84
2024/04/09 02:58:03;;;;;;;0.10;0.10;;;;;;;10.88;66.21;101566.28;5275398;27;20002;-84
2024/04/09 03:00:30;;;;;;;0.10;0.10;;;;;;;10.95;66.07;101572.09;5247167;27;20002;-84
2024/04/09 03:02:56;;;;;;;0.20;0.20;;;;;;;10.98;65.50;101562.47;5247222;27;20482;-84
2024/04/09 03:05:31;;;;;;;0.10;0.10;;;;;;;10.81;65.49;101555.28;5246975;27;20015;-81
2024/04/09 03:07:58;;;;;;;0.10;0.10;;;;;;;10.87;65.89;101574.94;5247347;27;20014;-81
2024/04/09 03:10:24;;;;;;;0.10;0.10;;;;;;;10.85;66.61;101581.91;5247346;27;20387;-81
2024/04/09 03:12:49;;;;;;;0.10;0.10;;;;;;;10.78;66.37;101578.69;5246970;27;20073;-81
2024/04/09 03:15:15;;;;;;;0.10;0.10;;;;;;;10.78;66.63;101576.09;5249802;27;20025;-81
2024/04/09 03:17:41;;;;;;;0.10;0.10;;;;;;;10.73;66.67;101570.25;5277914;27;20324;-81
2024/04/09 03:20:10;;;;;;;0.10;0.10;;;;;;;10.84;66.80;101580.22;5249618;27;20420;-85
2024/04/09 03:22:38;;;;;;;0.20;0.20;;;;;;;10.75;67.10;101591.75;5193235;27;20007;-85
2024/04/09 03:25:05;;;;;;;0.10;0.10;;;;;;;10.83;66.37;101586.31;5189593;27;19999;-85
2024/04/09 03:27:31;;;;;;;0.10;0.10;;;;;;;10.84;66.30;101591.44;5217031;27;20445;-85
2024/04/09 03:29:57;;;;;;;0.10;0.10;;;;;;;10.89;66.25;101591.25;5216644;27;20003;-85
2024/04/09 03:32:23;;;;;;;0.10;0.10;;;;;;;10.84;66.34;101598.34;5243884;27;20010;-85
2024/04/09 03:34:49;;;;;;;0.10;0.10;;;;;;;10.71;66.00;101559.09;5215497;27;20018;-83
2024/04/09 03:37:15;;;;;;;0.10;0.10;;;;;;;10.80;66.15;101588.97;5216552;27;20317;-85
2024/04/09 03:39:41;;;;;;;0.10;0.10;;;;;;;10.84;66.27;101595.75;5216988;27;20035;-86
2024/04/09 03:42:06;;;;;;;0.10;0.10;;;;;;;10.71;66.43;101594.47;5216418;27;20428;-85
2024/04/09 03:44:32;;;;;;;0.10;0.10;;;;;;;10.59;67.29;101591.41;5244112;27;20381;-84
2024/04/09 03:47:03;;;;;;;0.10;0.10;;;;;;;10.55;67.70;101589.00;5243303;27;20428;-83
2024/04/09 03:49:35;;;;;;;0.10;0.10;;;;;;;10.72;67.50;101606.53;5217585;27;20035;-83
2024/04/09 03:52:01;;;;;;;0.10;0.10;;;;;;;10.66;66.97;101612.75;5217529;27;20016;-83
2024/04/09 03:54:26;;;;;;;0.10;0.10;;;;;;;10.51;67.74;101601.16;5215994;27;20090;-84
2024/04/09 03:56:52;;;;;;;0.10;0.10;;;;;;;10.67;67.42;101616.19;5216168;27;20495;-83
2024/04/09 03:59:18;;;;;;;0.20;0.20;;;;;;;10.45;67.84;101609.16;5188817;27;20017;-83
2024/04/09 04:01:43;;;;;;;0.17;0.17;;;;;;;10.43;68.03;101604.94;5215880;27;19999;-83
2024/04/09 04:04:09;;;;;;;0.10;0.10;;;;;;;10.30;68.16;101604.44;5187968;27;20074;-83
2024/04/09 04:06:34;;;;;;;0.10;0.10;;;;;;;10.21;68.80;101589.19;5216238;27;20010;-84
2024/04/09 04:09:00;;;;;;;0.20;0.20;;;;;;;10.38;68.47;101618.00;5271754;27;20820;-85
2024/04/09 04:11:26;;;;;;;0.20;0.20;;;;;;;10.43;68.01;101626.47;5218321;27;20464;-85
2024/04/09 04:13:51;;;;;;;0.10;0.10;;;;;;;10.51;67.63;101618.44;5248646;27;20006;-84
2024/04/09 04:16:18;;;;;;;0.10;0.10;;;;;;;10.26;67.96;101608.88;5247961;27;20002;-84
2024/04/09 04:18:47;;;;;;;0.20;0.20;;;;;;;10.42;67.88;101614.44;5276452;27;20081;-85
2024/04/09 04:21:19;;;;;;;0.20;0.20;;;;;;;10.44;69.90;101619.53;5248260;27;20452;-83
2024/04/09 04:23:51;;;;;;;0.10;0.10;;;;;;;10.57;67.90;101624.25;5250488;27;20038;-83
2024/04/09 04:26:26;;;;;;;0.10;0.10;;;;;;;10.59;67.14;101621.63;5273357;27;20448;-82
2024/04/09 04:28:52;;;;;;;0.20;0.20;;;;;;;10.62;67.26;101619.78;5274390;27;20468;-89
2024/04/09 04:31:18;;;;;;;0.20;0.20;;;;;;;11.14;66.26;101625.75;5250746;27;20002;-89
2024/04/09 04:33:44;;;;;;;0.10;0.10;;;;;;;11.03;67.04;101604.59;5256621;27;20018;-88
2024/04/09 04:36:10;;;;;;;0.10;0.10;;;;;;;11.09;67.05;101625.06;5249636;27;20057;-92
2024/04/09 04:38:36;;;;;;;0.10;0.10;;;;;;;11.07;66.29;101634.63;5254813;27;19998;-91
2024/04/09 04:41:02;;;;;;;0.10;0.10;;;;;;;11.08;66.15;101631.16;5219264;27;20010;-91
2024/04/09 04:43:28;;;;;;;0.10;0.10;;;;;;;11.16;67.73;101623.13;5279077;27;20006;-84
2024/04/09 04:45:56;;;;;;;0.20;0.20;;;;;;;11.25;65.94;101627.13;5242504;27;20014;-91
2024/04/09 04:48:22;;;;;;;0.20;0.20;;;;;;;11.34;66.82;101629.38;5276547;27;20084;-89
2024/04/09 04:50:48;;;;;;;0.20;0.20;;;;;;;11.30;65.21;101630.38;5247788;27;20457;-89
2024/04/09 04:53:15;;;;;;;0.20;0.20;;;;;;;11.27;65.44;101636.53;5246659;27;20022;-92
2024/04/09 04:55:40;;;;;;;0.10;0.10;;;;;;;11.26;65.70;101634.84;5218914;27;20015;-86
2024/04/09 04:58:06;;;;;;;0.10;0.10;;;;;;;11.26;65.63;101626.22;5246623;27;20021;-86
2024/04/09 05:00:32;;;;;;;0.10;0.10;;;;;;;11.23;65.86;101634.97;5277439;27;20507;-88
2024/04/09 05:02:58;;;;;;;0.10;0.10;;;;;;;11.31;65.46;101652.81;5277965;27;20006;-89
2024/04/09 05:05:23;;;;;;;0.10;0.10;;;;;;;11.26;66.03;101636.59;5285622;27;20017;-89
2024/04/09 05:07:49;;;;;;;0.20;0.20;;;;;;;11.28;65.00;101643.38;5237953;27;20002;-86
2024/04/09 05:10:15;;;;;;;0.20;0.20;;;;;;;11.34;64.98;101642.34;5247556;27;20165;-85
2024/04/09 05:12:44;;;;;;;0.20;0.20;;;;;;;11.50;65.15;101659.00;5273546;27;20002;-88
2024/04/09 05:15:10;;;;;;;0.10;0.10;;;;;;;11.44;65.36;101648.88;5220740;27;20006;-91
2024/04/09 05:17:36;;;;;;;0.20;0.20;;;;;;;11.55;66.63;101654.50;5250866;27;20002;-88
2024/04/09 05:20:03;;;;;;;0.20;0.20;;;;;;;11.57;65.49;101660.47;5274869;27;20017;-85
2024/04/09 05:22:29;;;;;;;0.20;0.20;;;;;;;11.63;65.14;101662.84;5234938;27;21234;-92
2024/04/09 05:24:55;;;;;;;0.10;0.10;;;;;;;11.73;64.87;101664.22;5254024;27;20093;-93
2024/04/09 05:27:21;;;;;;;0.10;0.10;;;;;;;11.76;65.36;101656.31;5257988;27;20016;-91
2024/04/09 05:29:47;;;;;;;0.20;0.20;;;;;;;11.83;65.61;101658.72;5217670;27;20019;-88
2024/04/09 05:32:12;;;;;;;0.15;0.15;;;;;;;11.86;65.61;101633.50;5245795;27;20443;-84
2024/04/09 05:34:38;;;;;;;0.10;0.10;;;;;;;12.05;64.91;101650.03;5274756;27;20037;-90
2024/04/09 05:37:04;;;;;;;0.15;0.15;;;;;;;12.29;66.88;101653.44;5277385;27;20099;-86
2024/04/09 05:39:29;;;;;;;0.20;0.20;;;;;;;12.44;64.81;101649.38;5249408;27;20365;-82
2024/04/09 05:41:55;;;;;;;0.10;0.10;;;;;;;12.63;65.83;101641.69;5292068;27;20013;-90
2024/04/09 05:44:21;;;;;;;0.17;0.17;;;;;;;12.78;64.29;101654.06;5274373;27;20002;-90
2024/04/09 05:46:46;;;;;;;0.20;0.20;;;;;;;12.80;63.78;101638.41;5275039;27;20452;-84
2024/04/09 05:49:12;;;;;;;0.10;0.10;;;;;;;12.75;62.97;101622.16;5240922;27;20006;-86
2024/04/09 05:51:38;;;;;;;0.10;0.10;;;;;;;13.00;63.70;101650.53;5266512;27;20010;-86
2024/04/09 05:54:03;;;;;;;0.20;0.20;;;;;;;13.04;64.26;101646.88;5275895;27;20005;-89
2024/04/09 05:56:29;;;;;;;0.20;0.20;;;;;;;13.18;63.38;101650.59;5218556;27;20008;-84
2024/04/09 05:58:54;;;;;;;0.20;0.20;;;;;;;13.34;63.30;101652.53;5240210;27;20011;-83
2024/04/09 06:01:20;;;;;;;0.20;0.20;;;;;;;13.54;61.69;101659.44;5230687;27;20069;-87
2024/04/09 06:03:45;;;;;;;0.20;0.20;;;;;;;13.60;61.29;101654.81;5217812;27;20021;-86
2024/04/09 06:06:11;;;;;;;0.10;0.10;;;;;;;13.68;60.62;101649.28;5274327;27;20010;-82
2024/04/09 06:08:36;;;;;;;0.20;0.20;;;;;;;13.78;60.78;101659.19;5243654;27;20003;-91
2024/04/09 06:11:03;;;;;;;0.20;0.20;;;;;;;13.91;60.79;101645.63;5260025;27;19998;-88
2024/04/09 06:13:29;;;;;;;0.20;0.20;;;;;;;14.05;60.35;101657.06;5275644;27;19994;-91
2024/04/09 06:15:55;;;;;;;0.10;0.10;;;;;;;13.97;60.30;101653.16;5256052;27;20006;-93
2024/04/09 06:18:20;;;;;;;0.10;0.10;;;;;;;13.86;61.31;101653.63;5216362;27;20007;-89
2024/04/09 06:20:46;;;;;;;0.20;0.20;;;;;;;13.75;61.17;101606.47;5283597;27;20017;-87
2024/04/09 06:23:12;;;;;;;0.20;0.20;;;;;;;14.03;61.52;101635.47;5267922;27;20014;-89
2024/04/09 06:25:39;;;;;;;0.10;0.10;;;;;;;14.19;60.81;101639.97;5246566;27;20018;-88
2024/04/09 06:28:05;;;;;;;0.20;0.20;;;;;;;14.06;60.91;101635.34;5239893;27;20003;-87
2024/04/09 06:30:31;;;;;;;0.20;0.20;;;;;;;14.22;59.89;101645.00;5299084;26;20003;-87
2024/04/09 06:32:56;;;;;;;0.20;0.20;;;;;;;14.36;59.06;101640.00;5274060;27;20613;-86
2024/04/09 06:35:22;;;;;;;0.10;0.10;;;;;;;14.29;59.48;101644.66;5274437;27;20014;-89
2024/04/09 06:37:47;;;;;;;0.20;0.20;;;;;;;14.46;59.14;101646.47;5242382;27;20002;-87
2024/04/09 06:40:13;;;;;;;0.10;0.10;;;;;;;14.54;58.91;101652.13;5273191;27;20003;-89
2024/04/09 06:42:38;;;;;;;0.20;0.20;;;;;;;14.58;58.72;101651.06;5243118;27;20014;-89
2024/04/09 06:45:05;;;;;;;0.20;0.20;;;;;;;14.70;58.88;101639.19;5245647;27;20014;-84
2024/04/09 06:47:31;;;;;;;0.20;0.20;;;;;;;15.00;58.16;101652.44;5256495;27;20007;-82
2024/04/09 06:49:58;;;;;;;0.10;0.10;;;;;;;15.06;57.75;101636.50;5218078;27;20088;-83
2024/04/09 06:52:24;;;;;;;0.20;0.20;;;;;;;15.31;57.35;101640.41;5274195;27;20002;-80
2024/04/09 06:54:49;;;;;;;0.20;0.20;;;;;;;15.43;57.10;101639.75;5245667;27;20010;-87
2024/04/09 06:57:15;;;;;;;0.20;0.20;;;;;;;15.55;56.79;101633.91;5245442;27;20017;-91
2024/04/09 06:59:41;;;;;;;0.20;0.20;;;;;;;15.68;56.29;101640.19;5245290;27;20024;-85
2024/04/09 07:02:08;;;;;;;0.10;0.10;;;;;;;15.75;55.75;101636.31;5241277;27;20003;-82
2024/04/09 07:04:33;;;;;;;0.17;0.17;;;;;;;15.70;56.51;101627.88;5245516;27;20006;-87
2024/04/09 07:06:59;;;;;;;0.10;0.10;;;;;;;15.91;55.32;101633.69;5217144;27;20003;-86
2024/04/09 07:09:25;;;;;;;0.20;0.20;;;;;;;15.80;54.97;101617.78;5239680;27;20007;-87
2024/04/09 07:11:50;;;;;;;0.20;0.20;;;;;;;15.89;54.22;101606.84;5245383;27;20344;-82
2024/04/09 07:14:16;;;;;;;0.20;0.20;;;;;;;15.93;54.54;101618.81;5273468;27;20122;-85
2024/04/09 07:16:45;;;;;;;0.20;0.20;;;;;;;16.14;53.62;101624.59;5274486;27;20437;-85
2024/04/09 07:19:11;;;;;;;0.20;0.20;;;;;;;16.32;53.77;101620.09;5245446;27;20006;-83
2024/04/09 07:21:36;;;;;;;0.20;0.20;;;;;;;16.43;53.53;101619.50;5212265;27;20014;-81
2024/04/09 07:24:05;;;;;;;0.10;0.10;;;;;;;16.54;53.49;101624.94;5272862;27;20014;-85
2024/04/09 07:26:31;;;;;;;0.20;0.20;;;;;;;16.63;53.35;101621.78;5245256;27;20007;-84
2024/04/09 07:28:56;;;;;;;0.10;0.10;;;;;;;16.65;53.65;101622.53;5272579;27;20464;-82
2024/04/09 07:31:22;;;;;;;0.20;0.20;;;;;;;16.74;53.32;101629.88;5273350;27;20002;-87
2024/04/09 07:33:48;;;;;;;0.20;0.20;;;;;;;16.91;52.51;101628.84;5273480;27;19998;-81
2024/04/09 07:36:13;;;;;;;0.20;0.20;;;;;;;16.99;52.20;101634.47;5245404;27;20040;-80
2024/04/09 07:38:40;;;;;;;0.10;0.10;;;;;;;17.13;52.20;101617.97;5272386;27;20085;-85
2024/04/09 07:41:05;;;;;;;0.20;0.20;;;;;;;17.22;51.53;101624.41;5237381;27;20031;-84
2024/04/09 07:43:31;;;;;;;0.20;0.20;;;;;;;17.29;51.97;101628.31;5239101;27;20018;-85
2024/04/09 07:45:57;;;;;;;0.10;0.10;;;;;;;17.41;51.48;101627.59;5251504;26;20047;-82
2024/04/09 07:48:24;;;;;;;0.10;0.10;;;;;;;17.47;51.76;101635.03;5211635;27;20003;-83
2024/04/09 07:50:50;;;;;;;0.20;0.20;;;;;;;17.71;51.17;101641.41;5228992;27;20021;-83
2024/04/09 07:53:16;;;;;;;0.20;0.20;;;;;;;17.77;50.82;101640.16;5235049;27;20021;-86
2024/04/09 07:55:42;;;;;;;0.20;0.20;;;;;;;17.77;50.23;101637.53;5272511;27;19998;-83
2024/04/09 07:58:07;;;;;;;0.10;0.10;;;;;;;17.73;50.65;101630.84;5243906;27;20021;-82
2024/04/09 08:00:33;;;;;;;0.10;0.10;;;;;;;18.00;51.18;101636.94;5273489;27;19999;-85
2024/04/09 08:02:59;;;;;;;0.10;0.10;;;;;;;18.27;50.39;101622.97;5276137;27;20081;-85
2024/04/09 08:05:24;;;;;;;0.20;0.20;;;;;;;18.40;49.11;101623.03;5277206;27;20002;-84
2024/04/09 08:07:50;;;;;;;0.10;0.10;;;;;;;18.36;49.38;101604.03;5276178;27;20014;-85
2024/04/09 08:10:19;;;;;;;0.20;0.20;;;;;;;18.69;48.92;101624.59;5277380;27;20010;-84
2024/04/09 08:12:49;;;;;;;0.20;0.20;;;;;;;18.77;47.92;101629.28;5248695;27;20452;-84
2024/04/09 08:15:15;;;;;;;0.20;0.20;;;;;;;18.68;47.90;101611.56;5276006;27;20002;-84
2024/04/09 08:17:42;;;;;;;0.20;0.20;;;;;;;18.88;47.80;101613.72;5241375;27;20317;-82
2024/04/09 08:20:10;;;;;;;0.20;0.20;;;;;;;18.99;47.54;101611.19;5236442;27;20317;-83
2024/04/09 08:22:38;;;;;;;0.10;0.10;;;;;;;19.00;47.75;101607.63;5228210;27;20009;-89
2024/04/09 08:25:04;;;;;;;0.20;0.20;;;;;;;19.02;47.47;101594.41;5248511;27;20196;-83
2024/04/09 08:27:33;;;;;;;0.20;0.20;;;;;;;19.18;47.10;101600.25;5276881;27;20521;-84
2024/04/09 08:29:59;;;;;;;0.10;0.10;;;;;;;19.38;46.56;101602.34;5276723;27;20002;-84
2024/04/09 08:32:25;;;;;;;0.10;0.10;;;;;;;19.54;45.73;101602.06;5246932;27;20010;-83
2024/04/09 08:34:52;;;;;;;0.10;0.10;;;;;;;19.64;44.96;101595.25;5277499;27;20018;-85
2024/04/09 08:37:17;;;;;;;0.20;0.20;;;;;;;19.58;44.77;101603.56;5242825;27;20015;-91
2024/04/09 08:39:43;;;;;;;0.10;0.10;;;;;;;19.89;45.33;101606.63;5264125;27;20003;-84
2024/04/09 08:42:08;;;;;;;0.20;0.20;;;;;;;19.95;44.30;101609.63;5273916;27;20010;-82
2024/04/09 08:44:35;;;;;;;0.20;0.20;;;;;;;20.03;43.42;101601.19;5275195;27;20002;-80
2024/04/09 08:47:00;;;;;;;0.20;0.20;;;;;;;20.07;44.30;101572.94;5280324;27;20326;-90
2024/04/09 08:49:26;;;;;;;0.20;0.20;;;;;;;20.51;43.52;101588.00;5263101;27;20444;-86
2024/04/09 08:51:54;;;;;;;0.20;0.20;;;;;;;20.73;42.67;101588.06;5307699;27;20024;-80
2024/04/09 08:54:19;;;;;;;0.10;0.10;;;;;;;20.72;42.51;101594.25;5308025;27;20033;-80
2024/04/09 08:56:45;;;;;;;0.20;0.20;;;;;;;20.74;43.30;101589.72;5309095;27;20034;-81
2024/04/09 08:59:10;;;;;;;0.20;0.20;;;;;;;20.99;42.74;101583.41;5309263;27;20001;-83
2024/04/09 09:01:37;;;;;;;0.20;0.20;;;;;;;21.02;41.89;101580.53;5276029;27;20009;-87
2024/04/09 09:04:04;;;;;;;0.10;0.10;;;;;;;21.15;41.96;101593.59;5304957;27;20025;-86
2024/04/09 09:06:30;;;;;;;0.20;0.20;;;;;;;21.25;41.80;101586.66;5280828;27;20001;-85
2024/04/09 09:08:57;;;;;;;0.20;0.20;;;;;;;21.38;40.57;101574.22;5279140;27;19998;-82
2024/04/09 09:11:26;;;;;;;0.20;0.20;;;;;;;21.43;40.30;101573.84;5308210;27;20087;-84
2024/04/09 09:13:51;;;;;;;0.20;0.20;;;;;;;21.69;40.86;101574.41;5282024;27;20017;-91
2024/04/09 09:16:18;;;;;;;0.20;0.20;;;;;;;21.90;39.57;101564.75;5277033;27;20076;-81
2024/04/09 09:18:43;;;;;;;0.20;0.20;;;;;;;22.07;39.65;101565.19;5279421;27;20394;-83
2024/04/09 09:21:11;;;;;;;0.20;0.20;;;;;;;22.03;40.19;101569.88;5310068;27;20013;-90
2024/04/09 09:23:36;;;;;;;0.10;0.10;;;;;;;22.28;39.96;101573.97;5307831;27;20001;-89
2024/04/09 09:26:05;;;;;;;0.20;0.20;;;;;;;22.46;39.36;101561.88;5280238;27;20021;-88
2024/04/09 09:28:31;;;;;;;0.20;0.20;;;;;;;22.51;38.84;101564.94;5280359;27;20009;-86
2024/04/09 09:30:56;;;;;;;0.20;0.20;;;;;;;22.57;38.28;101561.81;5302642;27;20431;-86
2024/04/09 09:33:32;;;;;;;0.20;0.20;;;;;;;22.81;38.15;101560.66;5282198;27;20088;-89
2024/04/09 09:35:57;;;;;;;0.20;0.20;;;;;;;22.90;37.36;101552.00;5256098;27;20016;-92
2024/04/09 09:38:26;;;;;;;0.20;0.20;;;;;;;22.85;37.04;101555.03;5281003;27;20339;-86
2024/04/09 09:40:52;;;;;;;0.20;0.20;;;;;;;22.84;37.10;101560.44;5310148;26;20006;-83
2024/04/09 09:43:19;;;;;;;0.20;0.20;;;;;;;22.92;37.11;101555.34;5278243;27;20083;-81
2024/04/09 09:45:45;;;;;;;0.20;0.20;;;;;;;22.99;37.11;101559.13;5284458;27;19999;-80
2024/04/09 09:48:11;;;;;;;0.20;0.20;;;;;;;22.99;37.13;101559.13;5270725;27;20017;-83
2024/04/09 09:50:38;;;;;;;0.20;0.20;;;;;;;23.03;36.69;101534.16;5246382;27;20452;-90
2024/04/09 09:53:04;;;;;;;0.20;0.20;;;;;;;23.26;36.24;101555.03;5280652;27;20005;-84
2024/04/09 09:55:30;;;;;;;0.20;0.20;;;;;;;23.29;36.22;101552.13;5309747;27;20005;-92
2024/04/09 09:57:56;;;;;;;0.20;0.20;;;;;;;23.38;36.14;101548.69;5261373;27;20002;-85
2024/04/09 10:00:22;;;;;;;0.20;0.20;;;;;;;23.69;36.78;101555.56;5273657;27;20017;-88
2024/04/09 10:02:47;;;;;;;0.20;0.20;;;;;;;23.81;35.99;101513.19;5245116;27;20017;-81
2024/04/09 10:05:14;;;;;;;0.20;0.20;;;;;;;23.99;34.66;101522.91;5244499;27;20077;-82
2024/04/09 10:07:40;;;;;;;0.20;0.20;;;;;;;23.94;34.38;101525.13;5270300;27;20014;-84
2024/04/09 10:10:06;;;;;;;0.20;0.20;;;;;;;24.04;35.63;101530.41;5246507;27;20013;-85
2024/04/09 10:12:32;;;;;;;0.20;0.20;;;;;;;24.15;34.58;101513.56;5274115;27;20003;-82
2024/04/09 10:15:07;;;;;;;0.20;0.20;;;;;;;24.00;34.83;101523.75;5246589;27;20006;-84
2024/04/09 10:17:52;;;;;;;0.20;0.20;;;;;;;24.02;34.34;101527.06;5247037;27;20020;-88
2024/04/09 10:20:20;;;;;;;0.20;0.20;;;;;;;23.88;34.85;101524.84;5272844;27;20021;-86
2024/04/09 10:22:49;;;;;;;0.20;0.20;;;;;;;23.72;34.93;101494.53;5274487;27;20017;-85
2024/04/09 10:25:18;;;;;;;0.20;0.20;;;;;;;23.88;34.64;101503.69;5300327;27;20013;-87
2024/04/09 10:27:44;;;;;;;0.20;0.20;;;;;;;24.06;34.57;101512.59;5240366;27;20021;-82
2024/04/09 10:30:16;;;;;;;0.20;0.20;;;;;;;24.10;34.71;101495.50;5266273;27;20413;-85
2024/04/09 10:33:02;;;;;;;0.20;0.20;;;;;;;24.45;34.25;101501.97;5245641;27;20368;-91
2024/04/09 10:35:28;;;;;;;0.20;0.20;;;;;;;24.75;33.78;101490.28;5246835;27;20006;-91
2024/04/09 10:37:55;;;;;;;0.20;0.20;;;;;;;24.92;33.01;101500.09;5273194;27;20002;-88
2024/04/09 10:40:21;;;;;;;0.20;0.20;;;;;;;25.09;33.15;101498.53;5272417;27;20003;-91
2024/04/09 10:42:47;;;;;;;0.20;0.20;;;;;;;25.27;32.22;101494.09;5247217;27;20007;-87
2024/04/09 10:45:12;;;;;;;0.20;0.20;;;;;;;25.34;31.55;101489.84;5244868;27;20110;-86
2024/04/09 10:47:38;;;;;;;0.20;0.20;;;;;;;25.44;31.16;101492.44;5252081;27;20247;-88
2024/04/09 10:50:05;;;;;;;0.20;0.20;;;;;;;25.33;30.74;101488.19;5274175;27;20008;-85
2024/04/09 10:52:31;;;;;;;0.20;0.20;;;;;;;25.51;30.85;101476.78;5243439;27;20002;-85
2024/04/09 10:54:57;;;;;;;0.20;0.20;;;;;;;25.88;30.07;101481.94;5271087;27;20334;-89
2024/04/09 10:57:22;;;;;;;0.20;0.20;;;;;;;25.98;29.47;101472.88;5245414;27;20007;-86
2024/04/09 10:59:48;;;;;;;0.20;0.20;;;;;;;26.08;28.93;101464.00;5274429;27;20085;-92
2024/04/09 11:02:15;;;;;;;0.20;0.20;;;;;;;26.11;28.95;101459.22;5245112;27;20081;-85
2024/04/09 11:04:40;;;;;;;0.20;0.20;;;;;;;26.24;27.79;101461.44;5244876;27;20419;-84
2024/04/09 11:07:07;;;;;;;0.20;0.20;;;;;;;26.14;27.57;101450.09;5272703;27;20110;-84
2024/04/09 11:09:34;;;;;;;0.20;0.20;;;;;;;26.25;26.69;101453.34;5269780;27;20080;-92
2024/04/09 11:11:59;;;;;;;0.20;0.20;;;;;;;26.24;26.04;101450.84;5258438;27;20420;-90
2024/04/09 11:14:25;;;;;;;0.20;0.20;;;;;;;26.45;25.49;101448.69;5276196;27;20096;-90
2024/04/09 11:16:50;;;;;;;0.20;0.20;;;;;;;26.65;24.80;101448.44;5246685;27;20021;-86
2024/04/09 11:19:37;;;;;;;0.20;0.20;;;;;;;26.76;24.79;101441.00;5245721;27;19998;-94
2024/04/09 11:22:03;;;;;;;0.20;0.20;;;;;;;26.75;25.06;101446.47;5273446;27;20013;-86